Latest Weather Observations for Mallacoota

IDV60801

Issued at 3:31 pm EST Tuesday 4 August 2015 (issued every 30 minutes, with the page automatically refreshed every 10 minutes)

About weather observations | Map of weather stations | Latest weather observations for VIC | Other Formats
Station Details ID: 084084 Name: MALLACOOTA Lat: -37.60 Lon: 149.73 Height: 22.0 m
Data from the previous 72 hours. | See also: Recent months at Mallacoota
Date/Time
EST
Temp
°C
App
Temp
°C
Dew
Point
Rel
Hum
%
Delta-T
°C
Wind Press
QNH
hPa
Press
MSL
hPa
Rain
since 9 am
mm
Dir
 
Spd
km/h
Gust
km/h
Spd
kts
Gust
kts
04/03:30pm 11.0 7.1 1.3 51 4.1 SW 11 17 6 9 1017.1 - 0.4
04/03:00pm 11.2 7.2 0.6 48 4.4 WSW 11 17 6 9 1017.4 1017.4 0.4
04/02:30pm 11.6 7.2 0.4 46 4.6 WSW 13 24 7 13 1017.6 - 0.4
04/02:00pm 11.5 7.5 0.3 46 4.6 WSW 11 20 6 11 1017.9 - 0.4
04/01:30pm 11.8 8.3 1.2 48 4.5 W 9 19 5 10 1018.3 - 0.4
04/01:00pm 11.3 6.5 0.4 47 4.5 W 15 22 8 12 1018.8 - 0.4
04/12:30pm 11.5 7.2 0.9 48 4.4 W 13 24 7 13 1019.4 - 0.4
04/12:00pm 10.7 5.5 0.4 49 4.2 WSW 17 30 9 16 1019.7 1019.7 0.2
04/11:30am 10.3 4.5 -0.2 48 4.2 WSW 20 33 11 18 1020.1 - 0.2
04/11:00am 10.3 4.7 0.1 49 4.1 W 19 30 10 16 1020.7 - 0.2
04/10:30am 9.7 4.5 0.1 51 3.9 W 17 32 9 17 1021.1 - 0.2
04/10:00am 9.4 5.0 0.6 54 3.6 W 13 22 7 12 1021.4 - 0.2
04/09:30am 8.5 3.8 0.7 58 3.1 WNW 15 32 8 17 1021.4 - 0.0
04/09:00am 7.3 3.4 1.2 65 2.4 WNW 11 17 6 9 1021.7 1021.8 3.0
04/08:30am 6.4 2.4 0.7 67 2.2 WNW 11 17 6 9 1021.7 - 3.0
04/08:00am 5.7 2.1 0.7 70 2.0 WNW 9 15 5 8 1021.8 - 2.8
04/07:30am 4.7 1.0 0.1 72 1.7 WNW 9 15 5 8 1021.6 - 2.8
04/07:00am 4.6 0.9 0.0 72 1.7 NW 9 19 5 10 1021.5 - 2.8
04/06:30am 4.9 0.8 0.1 71 1.8 WNW 11 17 6 9 1021.4 - 2.8
04/06:00am 5.2 0.8 0.4 71 1.8 WNW 13 24 7 13 1021.2 1021.2 2.6
04/05:30am 5.3 0.9 0.5 71 1.9 WNW 13 22 7 12 1021.0 - 2.6
04/05:00am 5.3 0.9 0.3 70 1.9 W 13 19 7 10 1020.9 - 2.6
04/04:30am 5.2 0.4 0.4 71 1.8 W 15 24 8 13 1020.8 - 2.4
04/04:00am 5.3 0.5 0.5 71 1.9 W 15 22 8 12 1020.9 - 2.4
04/03:30am 5.3 0.5 0.5 71 1.9 W 15 30 8 16 1020.7 - 2.4
04/03:00am 5.2 0.5 0.6 72 1.8 W 15 26 8 14 1020.5 1020.5 2.4
04/02:30am 5.2 0.9 0.8 73 1.7 W 13 22 7 12 1020.6 - 2.2
04/02:00am 5.0 0.3 0.9 75 1.6 W 15 28 8 15 1020.7 - 2.2
04/01:30am 4.9 0.2 0.9 75 1.6 W 15 30 8 16 1020.8 - 2.2
04/01:00am 4.9 -0.2 1.0 76 1.5 W 17 28 9 15 1020.8 - 2.0
04/12:30am 4.9 -0.2 1.0 76 1.5 W 17 28 9 15 1021.0 - 2.0
04/12:00am 4.8 0.1 1.1 77 1.4 W 15 30 8 16 1020.9 1020.9 2.0
 
Date/Time
EST
Temp
°C
App
Temp
°C
Dew
Point
Rel
Hum
%
Delta-T
°C
Wind Press
QNH
hPa
Press
MSL
hPa
Rain
since 9 am
mm
Dir
 
Spd
km/h
Gust
km/h
Spd
kts
Gust
kts
03/11:30pm 4.5 -0.5 1.4 80 1.2 W 17 28 9 15 1020.7 - 1.8
03/11:00pm 4.4 -0.2 1.6 82 1.1 W 15 24 8 13 1020.3 - 1.8
03/10:30pm 4.6 -0.3 1.8 82 1.1 W 17 28 9 15 1020.2 - 1.8
03/10:00pm 5.0 -0.3 1.8 80 1.3 W 19 37 10 20 1020.3 - 1.6
03/09:30pm 5.2 0.3 1.7 78 1.4 W 17 33 9 18 1019.9 - 1.6
03/09:00pm 5.1 0.5 1.8 79 1.3 W 15 26 8 14 1019.8 1019.8 1.6
03/08:30pm 5.2 0.3 1.9 79 1.3 W 17 30 9 16 1019.9 - 1.6
03/08:00pm 4.9 0.3 1.7 80 1.3 W 15 28 8 15 1019.7 - 1.4
03/07:30pm 5.0 0.0 1.5 78 1.4 W 17 32 9 17 1019.2 - 1.4
03/07:00pm 5.4 0.2 2.4 81 1.2 W 19 37 10 20 1018.9 - 1.4
03/06:30pm 5.0 0.6 2.5 84 1.0 WNW 15 26 8 14 1017.9 - 1.2
03/06:00pm 5.2 -0.2 2.6 83 1.1 W 20 43 11 23 1017.5 1017.5 1.2
03/05:30pm 5.2 -0.3 2.0 80 1.3 WSW 20 37 11 20 1017.3 - 1.2
03/05:00pm 6.2 0.3 1.7 73 1.8 W 22 39 12 21 1016.6 - 1.0
03/04:30pm 7.6 2.2 1.2 64 2.6 WSW 19 32 10 17 1016.3 - 1.0
03/04:00pm 7.4 2.9 2.1 69 2.2 WSW 15 24 8 13 1015.5 - 0.8
03/03:30pm 7.5 0.5 2.0 68 2.3 SSW 28 48 15 26 1015.5 - 0.8
03/03:00pm 9.2 1.9 0.1 53 3.6 SW 28 52 15 28 1014.6 1014.6 0.8
03/02:45pm 9.0 1.7 0.2 54 3.5 WSW 28 57 15 31 1014.4 - 0.8
03/02:30pm 8.3 1.8 2.5 67 2.4 SW 26 46 14 25 1014.0 - 0.6
03/02:00pm 8.1 2.0 3.0 70 2.2 WSW 24 39 13 21 1013.8 - 0.6
03/01:30pm 6.4 0.3 3.0 79 1.4 WSW 24 52 13 28 1013.7 - 0.4
03/01:00pm 8.6 1.7 2.4 65 2.6 WSW 28 46 15 25 1012.8 - 0.4
03/12:32pm 8.2 1.4 2.9 69 2.2 WSW 28 52 15 28 1012.8 - 0.4
03/12:30pm 8.2 1.8 3.1 70 2.2 WSW 26 50 14 27 1012.8 - 0.4
03/12:00pm 7.2 1.8 4.7 84 1.1 W 22 43 12 23 1012.6 1012.6 0.2
03/11:30am 6.6 1.2 4.4 86 0.9 WSW 22 41 12 22 1013.1 - 0.2
03/11:00am 6.9 0.7 4.4 84 1.1 WSW 26 52 14 28 1012.7 - 0.0
03/10:55am 7.1 0.5 4.4 83 1.2 WSW 28 52 15 28 1012.4 - 0.0
03/10:30am 7.7 2.1 5.2 84 1.1 WSW 24 43 13 23 1012.1 - 0.0
03/10:00am 8.2 3.3 5.3 82 1.3 WSW 20 35 11 19 1011.5 - 0.0
03/09:31am 9.3 3.0 5.5 77 1.7 SW 28 57 15 31 1010.5 - 0.0
03/09:30am 9.3 3.3 5.5 77 1.7 SW 26 43 14 23 1010.4 - 0.0
03/09:15am 9.3 3.0 5.7 78 1.6 SW 28 50 15 27 1010.5 - 0.0
03/09:00am 9.8 5.4 6.7 81 1.5 SW 19 32 10 17 1010.1 1010.1 1.8
03/08:30am 8.8 5.0 5.7 81 1.4 SW 15 22 8 12 1009.9 - 1.8
03/08:00am 5.9 3.3 4.1 88 0.8 SW 7 13 4 7 1009.1 - 1.8
03/07:30am 3.9 1.5 2.1 88 0.7 W 4 7 2 4 1008.3 - 1.8
03/07:00am 3.3 0.2 1.3 87 0.8 NNW 7 11 4 6 1007.8 - 1.8
03/06:30am 4.8 0.8 2.8 87 0.8 N 13 19 7 10 1007.5 - 1.8
03/06:00am 4.1 0.4 2.5 89 0.6 N 11 17 6 9 1007.3 1007.3 1.8
03/05:30am 4.4 0.0 2.9 90 0.6 NNW 15 22 8 12 1007.2 - 1.8
03/05:00am 3.5 -1.0 2.2 91 0.5 NNW 15 19 8 10 1007.7 - 1.8
03/04:30am 2.3 -1.3 0.8 90 0.6 W 9 13 5 7 1007.8 - 1.8
03/04:00am 2.6 -1.0 0.8 88 0.7 W 9 13 5 7 1007.9 - 1.8
03/03:30am 3.5 -0.3 1.5 87 0.8 WNW 11 17 6 9 1007.9 - 1.8
03/03:00am 3.1 -0.4 1.0 86 0.8 WNW 9 13 5 7 1007.9 1007.9 1.8
03/02:30am 3.8 -0.1 1.4 84 0.9 WNW 11 13 6 7 1008.1 - 1.8
03/02:00am 4.3 0.4 1.3 81 1.2 W 11 13 6 7 1008.3 - 1.8
03/01:30am 5.3 1.5 1.6 77 1.5 W 11 15 6 8 1008.4 - 1.8
03/01:00am 5.5 1.8 2.2 79 1.3 WNW 11 15 6 8 1008.4 - 1.8
03/12:30am 5.3 1.6 2.5 82 1.1 NNW 11 15 6 8 1008.6 - 1.8
03/12:00am 4.5 1.1 2.0 84 1.0 NW 9 11 5 6 1008.7 1008.7 1.8
 
Date/Time
EST
Temp
°C
App
Temp
°C
Dew
Point
Rel
Hum
%
Delta-T
°C
Wind Press
QNH
hPa
Press
MSL
hPa
Rain
since 9 am
mm
Dir
 
Spd
km/h
Gust
km/h
Spd
kts
Gust
kts
02/11:30pm 4.6 1.2 1.8 82 1.1 N 9 11 5 6 1008.9 - 1.8
02/11:00pm 6.3 2.3 2.9 79 1.4 N 13 17 7 9 1009.2 - 1.6
02/10:30pm 6.6 2.9 4.6 87 0.9 N 13 17 7 9 1009.6 - 1.6
02/10:00pm 6.5 3.3 5.0 90 0.7 N 11 17 6 9 1009.6 - 1.6
02/09:30pm 5.9 2.6 4.7 92 0.5 NNW 11 13 6 7 1009.9 - 1.6
02/09:00pm 6.0 3.1 4.8 92 0.5 NW 9 13 5 7 1010.0 1010.0 1.6
02/08:30pm 6.1 2.9 4.9 92 0.5 NW 11 13 6 7 1010.0 - 1.6
02/08:00pm 6.6 3.8 5.2 91 0.6 NW 9 13 5 7 1009.7 - 1.6
02/07:30pm 6.7 3.5 5.3 91 0.6 NW 11 15 6 8 1009.3 - 1.6
02/07:00pm 6.7 4.3 5.2 90 0.7 WNW 7 11 4 6 1009.5 - 1.6
02/06:30pm 7.2 4.9 5.5 89 0.8 NW 7 9 4 5 1009.0 - 1.6
02/06:00pm 7.9 5.6 5.7 86 1.0 W 7 9 4 5 1008.4 1008.4 1.6
02/05:30pm 8.5 5.9 6.1 85 1.1 W 9 11 5 6 1008.2 - 1.6
02/05:00pm 9.3 7.0 5.9 79 1.6 NW 7 9 4 5 1007.9 - 1.6
02/04:30pm 11.7 9.8 6.8 72 2.3 W 6 11 3 6 1007.9 - 1.6
02/04:00pm 11.9 9.1 7.0 72 2.3 SW 11 15 6 8 1008.1 - 1.6
02/03:30pm 11.8 9.4 7.1 73 2.3 SSW 9 17 5 9 1008.2 - 1.6
02/03:00pm 12.1 9.4 7.2 72 2.4 SSW 11 20 6 11 1008.0 1008.0 1.4
02/02:30pm 12.1 10.5 8.6 79 1.7 WSW 7 13 4 7 1007.6 - 1.4
02/02:00pm 11.3 9.7 8.9 85 1.2 W 7 13 4 7 1007.7 - 1.2
02/01:30pm 10.5 8.5 8.8 89 0.8 WNW 9 15 5 8 1007.6 - 1.2
02/01:00pm 9.5 7.4 8.1 91 0.7 WNW 9 15 5 8 1008.5 - 1.0
02/12:30pm 9.4 6.9 8.0 91 0.7 WNW 11 19 6 10 1009.2 - 1.0
02/12:00pm 9.3 6.4 8.1 92 0.6 W 13 20 7 11 1009.7 1009.7 0.8
02/11:30am 9.8 6.6 8.6 92 0.6 WSW 15 24 8 13 1009.9 - 0.6
02/11:00am 9.6 6.8 8.5 93 0.5 W 13 22 7 12 1010.4 - 0.6
02/10:30am 8.7 5.3 7.6 93 0.5 W 15 24 8 13 1010.9 - 0.4
02/10:00am 9.0 6.8 7.9 93 0.5 WSW 9 15 5 8 1011.0 - 0.2
02/09:30am 8.8 7.1 7.7 93 0.5 W 6 11 3 6 1011.0 - 0.0
02/09:00am 8.5 6.2 7.4 93 0.5 SW 9 11 5 6 1011.4 1011.4 1.4
02/08:30am 8.6 6.7 7.5 93 0.5 W 7 9 4 5 1011.6 - 1.2
02/08:00am 8.1 6.1 7.0 93 0.5 WSW 7 9 4 5 1011.6 - 1.2
02/07:30am 7.8 7.0 6.6 92 0.6 CALM 0 0 0 0 1011.3 - 1.2
02/07:00am 7.7 6.5 6.5 92 0.5 N 2 6 1 3 1011.8 - 1.0
02/06:30am 7.6 5.6 6.4 92 0.5 NW 6 9 3 5 1011.9 - 1.0
02/06:00am 7.6 5.1 6.4 92 0.5 NW 9 11 5 6 1012.2 1012.2 0.8
02/05:30am 7.7 5.2 6.5 92 0.5 NW 9 11 5 6 1012.6 - 0.8
02/05:00am 7.7 5.7 6.3 91 0.6 N 6 9 3 5 1012.7 - 0.8
02/04:30am 7.7 5.1 6.3 91 0.6 NW 9 13 5 7 1013.2 - 0.6
02/04:00am 7.8 5.2 6.3 90 0.7 NNW 9 11 5 6 1013.7 - 0.6
02/03:30am 7.9 4.9 6.2 89 0.8 NNW 11 17 6 9 1014.0 - 0.6
02/03:00am 8.0 4.7 6.3 89 0.8 NNW 13 17 7 9 1014.5 1014.5 0.6
02/02:30am 8.0 4.6 6.1 88 0.9 NW 13 17 7 9 1015.1 - 0.4
02/02:00am 8.5 5.5 6.1 85 1.1 NNW 11 17 6 9 1015.3 - 0.4
02/01:30am 8.4 5.0 6.0 85 1.1 NNW 13 17 7 9 1015.3 - 0.4
02/01:00am 8.2 5.2 5.8 85 1.1 NNW 11 15 6 8 1015.4 - 0.4
02/12:30am 8.5 6.3 6.0 84 1.1 NW 7 11 4 6 1015.5 - 0.4
02/12:00am 8.3 5.9 5.4 82 1.3 NW 7 11 4 6 1015.5 1015.5 0.4
 
Date/Time
EST
Temp
°C
App
Temp
°C
Dew
Point
Rel
Hum
%
Delta-T
°C
Wind Press
QNH
hPa
Press
MSL
hPa
Rain
since 9 am
mm
Dir
 
Spd
km/h
Gust
km/h
Spd
kts
Gust
kts
01/11:30pm 8.9 6.2 5.8 81 1.4 WNW 9 13 5 7 1016.2 - 0.4
01/11:00pm 9.1 6.8 5.7 79 1.5 WNW 7 11 4 6 1015.8 - 0.4
01/10:30pm 9.2 6.6 5.9 80 1.5 WNW 9 13 5 7 1015.8 - 0.4
01/10:00pm 9.2 6.6 6.3 82 1.3 W 9 13 5 7 1016.0 - 0.4
01/09:30pm 9.0 6.5 6.4 84 1.2 WNW 9 13 5 7 1016.0 - 0.4
01/09:00pm 9.1 6.2 6.7 85 1.1 WNW 11 15 6 8 1016.3 1016.3 0.4
01/08:30pm 9.0 6.6 6.8 86 1.0 WNW 9 15 5 8 1016.1 - 0.4
01/08:00pm 9.0 6.2 6.8 86 1.0 WNW 11 17 6 9 1016.2 - 0.4
01/07:30pm 9.0 6.2 7.0 87 0.9 WNW 11 15 6 8 1015.9 - 0.4
01/07:00pm 8.9 6.5 7.0 88 0.9 WNW 9 15 5 8 1015.3 - 0.4
01/06:30pm 9.0 6.6 7.1 88 0.9 W 9 13 5 7 1015.4 - 0.4
01/06:00pm 9.1 6.7 7.2 88 0.9 WNW 9 15 5 8 1015.2 1015.2 0.4
01/05:30pm 9.3 7.0 7.4 88 0.9 W 9 15 5 8 1014.8 - 0.4
01/05:00pm 9.4 7.2 7.7 89 0.8 W 9 17 5 9 1014.4 - 0.2
01/04:30pm 9.7 7.2 8.1 90 0.8 W 11 19 6 10 1014.2 - 0.2
01/04:00pm 10.1 7.3 8.7 91 0.7 WSW 13 22 7 12 1013.8 - 0.2

Other Formats:

Comma delimited format used in spreadsheet applications
http://www.bom.gov.au/fwo/IDV60801/IDV60801.94935.axf

JavaScript Object Notation format (JSON) in row-major order
http://www.bom.gov.au/fwo/IDV60801/IDV60801.94935.json